Архив погоды в Баимре

Метеограмма Баимра
Воскресенье, 25 Июня
Время местн. Темп Ветер Видим Явления Облачность нижн/средн/верх Атм. давл. Влжн Точка росы ВНГО R Сост. почвы Tg s
Напр Скр Прв ур.ст ур.м изм
03:00 +8.1° С 7 10 20 км ливневый дождь облачно 727 752 +2 93% +7° 600 м - - - -
00:00 +18.3° С-З 3 6 20 км - облачно 725 749 +0.5 51% +8° 1.5 км - - - -
Суббота, 24 Июня
Время местн. Темп Ветер Видим Явления Облачность нижн/средн/верх Атм. давл. Влжн Точка росы ВНГО R Сост. почвы Tg s
Напр Скр Прв ур.ст ур.м изм
21:00 +21.9° З 2 6 20 км - облачно 724 748 +0.1 34% +5.3° 1.5 км 0 - - -
18:00 +23.9° З 3 7 20 км - облачно 724 748 -0.5 29% +5° 1 км - - - -
15:00 +19.4° З 1 5 10 км слабый непрерывный дождь облачно 747 747 -1.9 66% +13° более 2.5 км - - - -
09:00 +19.1° Ю 4 7 20 км - облачно 727 751 -0.8 47% +7.6° более 2.5 км 0 Влажная (без луж) +6° -
Пятница, 23 Июня
Время местн. Темп Ветер Видим Явления Облачность нижн/средн/верх Атм. давл. Влжн Точка росы ВНГО R Сост. почвы Tg s
Напр Скр Прв ур.ст ур.м изм
18:00 +20.8° З 3 9 20 км - переменная облачность 730 754 -1 32% +3.4° 1 км - - - -
15:00 +18.6° З 4 8 20 км - облачно с прояснениями 731 755 -0.5 40% +4.6° 1 км - - - -
12:00 +18.1° З,С-З 3 10 20 км - переменная облачность 731 756 -0.6 48% +7° 1 км - - - -
09:00 +14.2° З 3 7 20 км - облачно с прояснениями 732 757 0 64% +7.6° 1 км 0 Влажная (без луж) +3° -
03:00 +3.1° Ю,Ю-В 3 4 20 км - облачно 732 758 +0.4 98% +2.8° 1 км - - - -
00:00 +8.2° В,С-В 1 3 20 км небо без изменений {дождь} облачно с прояснениями 731 757 +0.7 97% +7.7° 1 км - - - -
Четверг, 22 Июня
Время местн. Темп Ветер Видим Явления Облачность нижн/средн/верх Атм. давл. Влжн Точка росы ВНГО R Сост. почвы Tg s
Напр Скр Прв ур.ст ур.м изм
21:00 +9.1° С 2 3 4 км слабый непрерывный дождь облачно 731 756 +0.8 93% +8.1° 1 км 0.8 - - -
15:00 +8.2° С 2 4 4 км слабый непрерывный дождь облачно 730 755 +0.3 95% +7.4° 1 км - - - -
12:00 +9.7° С 2 5 20 км - облачно 729 755 +0.2 82% +6.7° 1 км - - - -
09:00 +10° С 3 5 20 км - облачно 729 755 +0.1 78% +6.4° 1.5 км 0 Влажная (без луж) +8° -
06:00 +7.3° С 1 2 20 км - облачно 729 755 0 87% +5.3° 1.5 км - - - -
03:00 +5.7° штиль 0 2 20 км - облачно 729 755 +0.1 92% +4.5° 1.5 км - - - -
00:00 +7.4° С-З 1 4 20 км - облачно 729 755 +0.7 82% +4.5° 1.5 км - - - -
Среда, 21 Июня
Время местн. Темп Ветер Видим Явления Облачность нижн/средн/верх Атм. давл. Влжн Точка росы ВНГО R Сост. почвы Tg s
Напр Скр Прв ур.ст ур.м изм
21:00 +14° С-В 2 5 20 км - облачно 728 753 +0.3 54% +4.8° 1 км 0 - - -
18:00 +15.2° С,С-В 1 6 20 км - облачно 728 753 +0.2 46% +3.6° 1 км - - - -
15:00 +14.1° С 3 6 20 км - облачно с прояснениями 728 753 -0.3 53% +4.6° 1 км - - - -
12:00 +11.6° С-З 2 6 20 км - облачно 728 753 +0.5 61% +4.3° 1 км - - - -
09:00 +8.3° С 3 5 20 км - преимущественно облачно 728 753 +0.8 80% +5° 600 м 10 Влажная (без луж) +8° -
06:00 +6.8° С 2 4 20 км небо без изменений {ливневые осадки} преимущественно облачно 727 753 +0.8 90% +5.2° 600 м - - - -
03:00 +6.3° С,С-З 2 5 4 км слабый ливневый дождь облачно 726 752 +1.4 94% +5.4° 600 м - - - -